Terminal Aerodrome Forecast
Issued by NWS

Home | Current Version | Previous Version | Text Only | Print | Product List | Glossary Off
Versions: 1 2 3 4 5 6 7 8 9 10 11 12 13

000
FTUS43 KGRB 270531
TAFATW
TAF
KATW 270531Z 2706/2806 VRB03KT P6SM SKC
     FM271000 00000KT 6SM BR SKC
     FM271300 15004KT P6SM FEW050 SCT200
     FM280000 VRB03KT P6SM SKC=

USA.gov is the U.S. government's official web portal to all federal, state and local government web resources and services.